Grasonville, Maryland
Current Conditions -  °F | °C
As of 12:55 AM on Tuesday 27 Jan 2015 (Local Time) from KESN Reporting Station
Overcast Overcast  
Wind Chill: 24°   Ceiling: 1600
Heat Index: 31°   Visibility: 10mi
Dew Point: 29°   Wind: 8mph
Humidity: 91%   Direction: 10°N
Pressure: 29.72"   Gusts: NA
Location:  38.96°N, 76.21°W
Report Text: KESN 270555Z AUTO 01007KT 10SM OVC016 00/M02 A2972 RMK AO2 60003 T10051018 10003 21007 400601007
Loading
Personal Weather Stations






























Interactive Weather Map New forecast layout! Learn more

10-Day Weather Forecast

Advertisements
Track Severe Weather on mobile